Time;durP1;ratioP1;P1;durP2;ratioP2;P2;SDS_P1;SDS_P2;PMS_P1;PMS_P2;Temp;Humidity;BMP_temperature;BMP_pressure;BME280_temperature;BME280_humidity;BME280_pressure;Samples;Min_cycle;Max_cycle;Signal;HPM_P1;HPM_P2
2022/08/12 00:43:35;;;;;;;6.12;4.28;;;;;;;13.04;82.63;99111.56;1680709;85;25603;-58
2022/08/12 00:48:48;;;;;;;8.10;4.20;;;;;;;13.03;82.69;99119.00;1680750;85;25658;-59
2022/08/12 00:51:16;;;;;;;4.37;3.98;;;;;;;13.03;82.94;99114.05;1680852;85;25517;-58
2022/08/12 00:53:42;;;;;;;7.75;4.28;;;;;;;13.03;82.94;99114.05;1680830;85;25647;-59
2022/08/12 00:56:09;;;;;;;6.72;3.90;;;;;;;13.00;83.16;99108.63;1681009;85;26628;-58
2022/08/12 00:58:38;;;;;;;4.35;3.60;;;;;;;13.03;83.30;99108.55;1680958;85;25675;-59
2022/08/12 01:01:07;;;;;;;5.40;4.05;;;;;;;13.04;84.56;99104.11;1680618;85;27457;-58
2022/08/12 01:11:56;;;;;;;4.97;3.80;;;;;;;12.92;83.60;99108.02;1654837;86;25668;-58
2022/08/12 01:14:23;;;;;;;4.75;4.10;;;;;;;12.88;83.50;99103.75;1669365;85;27480;-57
2022/08/12 01:16:55;;;;;;;5.05;3.85;;;;;;;12.88;83.50;99106.50;1669471;85;26295;-58
2022/08/12 01:19:23;;;;;;;6.62;4.15;;;;;;;12.88;83.54;99105.12;1669714;85;25507;-58
2022/08/12 01:22:24;;;;;;;4.40;4.00;;;;;;;12.89;83.57;99098.48;1669779;85;25815;-58
2022/08/12 01:24:59;;;;;;;5.08;3.80;;;;;;;12.88;83.46;99094.12;1669575;85;25702;-58
2022/08/12 01:27:26;;;;;;;6.42;4.30;;;;;;;12.95;83.46;99092.26;1669818;86;27431;-58
2022/08/12 01:29:56;;;;;;;5.03;4.25;;;;;;;13.01;83.27;99090.98;1669752;85;25834;-59
2022/08/12 01:32:25;;;;;;;5.25;3.87;;;;;;;13.04;83.38;99090.34;1669807;85;25735;-58
2022/08/12 01:35:04;;;;;;;5.25;4.17;;;;;;;13.11;83.08;99084.94;1669759;86;26552;-58
2022/08/12 01:37:35;;;;;;;6.72;3.87;;;;;;;13.13;82.96;99087.61;1669740;85;25745;-58
2022/08/12 01:40:04;;;;;;;4.47;3.60;;;;;;;13.14;82.90;99086.50;1669961;85;27447;-58
2022/08/12 01:42:44;;;;;;;5.12;3.30;;;;;;;13.14;82.93;99086.50;1669658;85;25824;-58
2022/08/12 01:45:12;;;;;;;4.62;3.98;;;;;;;13.16;82.82;99084.22;1668490;85;25759;-58
2022/08/12 01:48:11;;;;;;;4.92;3.90;;;;;;;13.15;82.64;99082.61;1669803;85;26633;-58
2022/08/12 01:51:00;;;;;;;4.35;3.52;;;;;;;13.11;82.74;99083.56;1669677;85;25691;-60
2022/08/12 01:53:38;;;;;;;5.08;3.65;;;;;;;13.16;82.56;99077.92;1568821;91;27421;-58
2022/08/12 01:56:05;;;;;;;4.70;3.98;;;;;;;13.10;82.59;99081.95;1567712;91;25806;-58
2022/08/12 02:01:29;;;;;;;4.50;3.70;;;;;;;13.16;81.84;99080.67;1568609;91;25927;-58
2022/08/12 02:13:42;;;;;;;5.58;3.85;;;;;;;12.96;82.17;99083.45;1576621;91;25538;-59
2022/08/12 02:16:37;;;;;;;5.80;4.30;;;;;;;12.85;81.76;99090.62;1576007;91;26006;-60
2022/08/12 02:19:27;;;;;;;6.25;4.30;;;;;;;12.73;82.12;99089.05;1576793;91;25515;-59
2022/08/12 02:22:28;;;;;;;8.00;3.83;;;;;;;12.74;82.09;99083.23;1576494;91;27439;-60
2022/08/12 02:25:14;;;;;;;5.42;4.37;;;;;;;12.69;82.24;99077.06;1576414;91;35422;-59
2022/08/12 02:27:47;;;;;;;5.12;3.98;;;;;;;12.74;82.49;99081.85;1577043;91;25671;-59
2022/08/12 02:30:19;;;;;;;4.50;3.87;;;;;;;12.77;82.17;99079.84;1610104;85;25756;-59
2022/08/12 02:32:49;;;;;;;4.62;3.50;;;;;;;12.73;82.00;99076.66;1680843;85;25497;-59
2022/08/12 02:35:23;;;;;;;4.83;3.90;;;;;;;12.73;82.52;99072.54;1681270;85;27481;-60
2022/08/12 02:37:54;;;;;;;5.28;3.83;;;;;;;12.76;82.09;99074.66;1680693;85;25517;-59
2022/08/12 02:40:23;;;;;;;5.42;4.12;;;;;;;12.64;82.23;99069.19;1681040;85;25695;-59
2022/08/12 02:43:04;;;;;;;4.62;3.80;;;;;;;12.55;83.06;99066.41;1681025;85;25790;-59
2022/08/12 02:45:34;;;;;;;;;;;;;;;12.49;83.35;99066.30;1683504;85;25689;-60
2022/08/12 02:48:06;;;;;;;4.42;3.65;;;;;;;12.43;83.50;99068.94;1680726;85;28367;-59
2022/08/12 02:50:38;;;;;;;5.12;3.90;;;;;;;12.36;83.71;99083.14;1679799;85;25748;-61
2022/08/12 02:53:04;;;;;;;6.10;3.83;;;;;;;12.31;83.67;99080.52;1681042;85;25651;-59
2022/08/12 02:55:34;;;;;;;6.87;3.87;;;;;;;12.33;83.69;99078.27;1681093;85;25702;-59
2022/08/12 02:58:08;;;;;;;5.35;3.80;;;;;;;12.36;83.82;99069.41;1681289;85;25679;-59
2022/08/12 03:00:36;;;;;;;5.33;3.60;;;;;;;12.38;83.92;99071.84;1680709;85;25809;-59
2022/08/12 03:03:07;;;;;;;4.17;3.77;;;;;;;12.40;83.84;99068.19;1680948;85;25922;-59
2022/08/12 03:05:50;;;;;;;5.25;4.10;;;;;;;12.40;83.72;99067.63;1681029;85;25574;-59
2022/08/12 03:08:21;;;;;;;4.70;3.92;;;;;;;12.40;83.82;99064.89;1681145;85;26649;-60
2022/08/12 03:10:52;;;;;;;4.97;4.37;;;;;;;12.40;83.99;99059.94;1681155;85;25600;-60
2022/08/12 03:13:24;;;;;;;5.28;3.90;;;;;;;12.37;84.37;99064.70;1680794;84;27480;-59
2022/08/12 03:15:54;;;;;;;5.78;4.30;;;;;;;12.31;84.13;99061.28;1680688;85;25927;-60
2022/08/12 03:18:29;;;;;;;8.10;4.40;;;;;;;12.29;84.28;99061.59;1681108;85;25658;-59
2022/08/12 03:20:58;;;;;;;5.03;4.37;;;;;;;12.34;84.55;99065.33;1674050;84;25736;-60
2022/08/12 03:23:27;;;;;;;6.80;4.85;;;;;;;12.37;84.61;99061.39;1669819;85;25943;-59
2022/08/12 03:25:57;;;;;;;8.78;5.22;;;;;;;12.44;84.49;99054.64;1673401;85;27465;-60
2022/08/12 03:31:10;;;;;;;7.12;5.33;;;;;;;12.58;84.80;99045.70;1679330;85;25647;-60
2022/08/12 03:33:42;;;;;;;6.28;4.67;;;;;;;12.67;84.31;99054.01;1673245;84;26406;-59
2022/08/12 03:36:09;;;;;;;7.37;5.03;;;;;;;12.77;84.54;99054.27;1668157;85;25486;-59
2022/08/12 03:38:41;;;;;;;6.03;5.22;;;;;;;12.87;84.17;99058.68;1678244;85;27394;-59
2022/08/12 03:41:35;;;;;;;6.83;5.30;;;;;;;12.95;84.21;99062.00;1676615;85;25699;-59
2022/08/12 04:00:54;;;;;;;6.35;5.62;;;;;;;13.12;83.20;99065.36;1653156;86;25494;-59
2022/08/12 04:06:09;;;;;;;9.43;5.65;;;;;;;13.17;83.08;99073.48;1653096;86;25751;-59
2022/08/12 04:08:36;;;;;;;8.85;5.85;;;;;;;13.22;82.90;99067.56;1655155;86;25835;-59
2022/08/12 04:13:49;;;;;;;7.28;5.40;;;;;;;13.21;82.50;99070.08;1662728;86;25615;-59
2022/08/12 04:16:16;;;;;;;8.45;5.58;;;;;;;13.24;83.49;99063.35;1662909;86;25703;-60
2022/08/12 04:18:43;;;;;;;9.38;7.45;;;;;;;13.27;82.81;99065.46;1663069;86;28314;-60
2022/08/12 04:21:10;;;;;;;11.83;7.25;;;;;;;13.28;82.95;99067.66;1662956;86;25671;-59
2022/08/12 04:23:41;;;;;;;13.65;7.22;;;;;;;13.28;82.95;99063.53;1663051;86;25651;-60
2022/08/12 04:26:08;;;;;;;9.50;6.40;;;;;;;13.32;83.24;99067.25;1662717;86;25460;-60
2022/08/12 04:28:34;;;;;;;12.60;7.55;;;;;;;13.40;83.35;99070.59;1662756;86;25481;-61
2022/08/12 04:31:01;;;;;;;11.93;7.15;;;;;;;13.46;83.14;99065.73;1662763;86;28375;-60
2022/08/12 04:33:41;;;;;;;11.80;7.70;;;;;;;13.51;83.33;99069.73;1662629;85;25682;-60
2022/08/12 04:36:08;;;;;;;9.95;7.50;;;;;;;13.59;83.56;99059.86;1662720;86;25510;-60
2022/08/12 04:38:35;;;;;;;9.50;7.12;;;;;;;13.72;83.21;99063.57;1662670;85;25744;-60
2022/08/12 04:41:03;;;;;;;10.95;7.70;;;;;;;13.83;82.74;99061.30;1663079;85;25711;-60
2022/08/12 04:43:29;;;;;;;11.38;7.40;;;;;;;14.01;83.11;99073.10;1662874;86;27557;-59
2022/08/12 04:45:56;;;;;;;11.05;7.28;;;;;;;14.24;82.32;99083.09;1662632;85;25976;-60
2022/08/12 04:48:22;;;;;;;10.30;7.20;;;;;;;14.37;82.08;99076.59;1662901;86;25663;-60
2022/08/12 04:50:49;;;;;;;10.45;7.53;;;;;;;14.40;82.39;99057.20;1663103;85;25679;-60
2022/08/12 04:53:16;;;;;;;10.20;7.83;;;;;;;14.65;82.02;99074.77;1662749;86;25450;-60
2022/08/12 04:55:44;;;;;;;9.45;7.42;;;;;;;14.76;81.67;99072.45;1662778;86;27426;-60
2022/08/12 04:58:11;;;;;;;11.28;7.58;;;;;;;14.88;81.98;99070.98;1662677;86;25536;-59
2022/08/12 05:00:37;;;;;;;10.10;6.87;;;;;;;15.03;81.70;99068.22;1662746;86;25607;-59
2022/08/12 05:03:08;;;;;;;10.68;6.83;;;;;;;15.26;80.44;99066.53;1663089;86;25919;-59
2022/08/12 05:05:36;;;;;;;10.43;6.50;;;;;;;15.26;80.44;99066.53;1662879;86;25647;-60
2022/08/12 05:08:06;;;;;;;10.98;6.92;;;;;;;15.36;79.74;99071.66;1636140;86;27468;-60
2022/08/12 05:10:33;;;;;;;10.20;6.23;;;;;;;15.45;80.40;99070.80;1657699;86;25819;-60
2022/08/12 05:13:03;;;;;;;8.85;5.80;;;;;;;15.52;79.10;99071.84;1657528;86;25707;-60
2022/08/12 05:15:30;;;;;;;11.83;6.30;;;;;;;15.65;79.58;99073.30;1657680;86;25839;-60
2022/08/12 05:17:56;;;;;;;8.38;5.80;;;;;;;15.87;79.79;99074.09;1657753;86;25656;-60
2022/08/12 05:20:24;;;;;;;9.58;5.58;;;;;;;16.05;79.01;99076.14;1657658;86;27515;-60
2022/08/12 05:22:51;;;;;;;9.05;6.35;;;;;;;16.09;77.81;99083.98;1657447;86;25766;-60
2022/08/12 05:25:19;;;;;;;7.70;5.47;;;;;;;16.20;78.67;99082.19;1629329;86;25681;-60
2022/08/12 05:27:44;;;;;;;7.55;5.80;;;;;;;16.38;78.98;99083.59;1656955;86;26460;-62
2022/08/12 05:30:13;;;;;;;7.65;5.87;;;;;;;16.44;77.13;99078.67;1657587;86;25682;-62
2022/08/12 05:32:39;;;;;;;10.50;6.30;;;;;;;16.43;77.42;99082.56;1657814;86;27445;-62
2022/08/12 05:35:07;;;;;;;12.85;6.85;;;;;;;16.59;77.85;99084.67;1657636;86;25534;-64
2022/08/12 05:37:34;;;;;;;7.22;6.08;;;;;;;16.78;77.42;99083.53;1669853;85;25793;-60
2022/08/12 05:40:03;;;;;;;10.58;6.72;;;;;;;16.85;75.99;99082.97;1678727;85;25475;-59
2022/08/12 05:42:31;;;;;;;10.50;7.58;;;;;;;16.87;76.28;99086.18;1680083;85;25676;-59
2022/08/12 05:44:59;;;;;;;10.28;7.45;;;;;;;16.81;76.25;99085.61;1681987;85;27478;-60
2022/08/12 05:47:27;;;;;;;9.30;7.10;;;;;;;17.00;75.67;99090.33;1682034;85;25485;-61
2022/08/12 05:49:54;;;;;;;9.68;6.72;;;;;;;17.15;75.33;99082.75;1681979;85;25450;-61
2022/08/12 05:52:21;;;;;;;9.28;6.42;;;;;;;17.16;74.87;99082.17;1682009;85;25626;-62
2022/08/12 05:54:48;;;;;;;10.18;7.20;;;;;;;17.23;74.89;99078.23;1676418;85;26604;-59
2022/08/12 05:57:14;;;;;;;7.05;5.60;;;;;;;17.34;75.16;99076.37;1681749;85;27602;-62
2022/08/12 05:59:41;;;;;;;8.58;7.25;;;;;;;17.39;73.78;99077.52;1677914;85;25710;-59
2022/08/12 06:02:10;;;;;;;10.68;7.35;;;;;;;17.31;74.25;99083.42;1678039;85;25473;-59
2022/08/12 06:04:38;;;;;;;9.73;7.10;;;;;;;17.44;74.85;99086.95;1673805;85;27109;-59
2022/08/12 06:07:07;;;;;;;9.40;6.80;;;;;;;17.52;74.41;99086.03;1673978;85;25422;-59
2022/08/12 06:09:34;;;;;;;8.65;6.35;;;;;;;17.68;73.73;99086.08;1677929;84;25955;-59
2022/08/12 06:12:00;;;;;;;7.03;5.50;;;;;;;17.78;73.69;99088.13;1686576;85;25441;-59
2022/08/12 06:14:27;;;;;;;7.22;5.30;;;;;;;17.92;73.67;99093.28;1686819;85;25449;-60
2022/08/12 06:16:54;;;;;;;6.37;5.10;;;;;;;18.03;72.32;99083.31;1686794;85;25731;-59
2022/08/12 06:19:20;;;;;;;7.00;5.25;;;;;;;18.14;72.63;99079.45;1686813;85;25667;-60
2022/08/12 06:21:47;;;;;;;6.25;5.22;;;;;;;18.25;72.28;99083.91;1686806;85;27688;-62
2022/08/12 06:24:23;;;;;;;5.92;4.78;;;;;;;18.21;71.36;99083.01;1686699;85;25490;-60
2022/08/12 06:26:44;;;;;;;7.20;4.78;;;;;;;18.22;71.28;99081.84;1681770;85;26270;-63
2022/08/12 06:29:18;;;;;;;4.62;4.12;;;;;;;18.26;71.31;99080.56;1686778;84;25920;-64
2022/08/12 06:31:41;;;;;;;4.87;4.25;;;;;;;18.31;71.07;99078.92;1685440;85;25533;-59
2022/08/12 06:34:08;;;;;;;5.42;4.70;;;;;;;18.39;71.38;99078.53;1686846;84;27417;-59
2022/08/12 06:36:35;;;;;;;4.62;4.17;;;;;;;18.58;71.32;99079.20;1686943;85;25491;-59
2022/08/12 06:39:02;;;;;;;6.55;4.55;;;;;;;18.63;70.07;99078.13;1687120;84;25608;-59
2022/08/12 06:44:19;;;;;;;4.97;3.75;;;;;;;18.83;70.35;99085.15;1652439;85;25730;-61
2022/08/12 06:46:42;;;;;;;8.85;4.12;;;;;;;18.84;69.40;99085.36;1653806;85;25833;-64
2022/08/12 06:49:12;;;;;;;5.00;4.25;;;;;;;18.88;69.45;99087.06;1663241;85;25888;-59
2022/08/12 06:51:38;;;;;;;4.87;3.98;;;;;;;19.01;70.33;99085.00;1666094;86;25818;-59
2022/08/12 06:54:06;;;;;;;5.70;4.45;;;;;;;19.17;69.59;99086.37;1666316;86;25729;-60
2022/08/12 06:56:33;;;;;;;5.37;3.80;;;;;;;19.42;70.26;99079.77;1666167;86;25807;-59
2022/08/12 06:59:02;;;;;;;5.17;3.98;;;;;;;19.63;68.42;99085.59;1666566;86;27759;-59
2022/08/12 07:01:30;;;;;;;6.50;4.08;;;;;;;19.73;67.73;99088.36;1666134;86;25523;-59
2022/08/12 07:03:58;;;;;;;8.65;4.40;;;;;;;19.66;67.48;99081.48;1666242;86;25701;-59
2022/08/12 07:06:25;;;;;;;4.92;4.00;;;;;;;19.75;68.36;99077.69;1666123;86;25764;-59
2022/08/12 07:08:52;;;;;;;5.03;4.22;;;;;;;19.99;67.94;99080.75;1666396;86;25512;-59
2022/08/12 07:11:19;;;;;;;5.72;3.92;;;;;;;20.18;68.02;99078.54;1661372;85;29531;-59
2022/08/12 07:13:51;;;;;;;4.05;3.65;;;;;;;20.25;65.69;99070.92;1661052;86;25705;-59
2022/08/12 07:16:20;;;;;;;6.03;4.17;;;;;;;20.14;66.39;99074.08;1661374;86;25571;-59
2022/08/12 07:18:52;;;;;;;;;;;;;;;20.18;66.28;99072.19;1658833;86;26428;-60
2022/08/12 07:21:18;;;;;;;6.25;4.05;;;;;;;20.19;66.02;99076.58;1649332;86;26148;-59
2022/08/12 07:23:44;;;;;;;5.70;4.00;;;;;;;20.12;67.24;99076.45;1652878;86;27723;-59
2022/08/12 07:26:16;;;;;;;5.35;4.12;;;;;;;20.37;66.54;99077.48;1652694;86;25636;-59
2022/08/12 07:28:43;;;;;;;3.87;3.42;;;;;;;20.51;65.89;99075.53;1652818;86;25685;-59
2022/08/12 07:31:11;;;;;;;5.60;3.90;;;;;;;20.62;66.49;99074.33;1652774;86;25736;-60
2022/08/12 07:33:41;;;;;;;6.00;3.92;;;;;;;20.74;65.11;99076.11;1652945;86;25467;-59
2022/08/12 07:36:12;;;;;;;4.47;3.80;;;;;;;20.96;65.09;99068.95;1653099;86;27429;-59
2022/08/12 07:38:45;;;;;;;5.83;3.90;;;;;;;21.21;64.44;99064.92;1652739;86;25525;-59
2022/08/12 07:41:25;;;;;;;4.53;3.70;;;;;;;21.24;64.44;99069.75;1652819;86;25640;-58
2022/08/12 07:44:04;;;;;;;5.33;3.85;;;;;;;21.47;64.28;99068.25;1653281;86;26349;-59
2022/08/12 07:46:39;;;;;;;4.60;3.27;;;;;;;21.53;63.02;99058.38;1653310;86;25461;-60
2022/08/12 07:49:14;;;;;;;5.70;4.12;;;;;;;21.63;62.67;99062.50;1652861;86;27166;-58
2022/08/12 07:51:43;;;;;;;4.35;3.33;;;;;;;21.69;63.22;99062.95;1652967;86;25482;-59
2022/08/12 07:54:11;;;;;;;5.33;3.90;;;;;;;21.78;62.50;99060.70;1652982;86;25647;-59
2022/08/12 07:56:41;;;;;;;5.62;3.75;;;;;;;21.85;61.76;99060.00;1652881;86;25764;-59
2022/08/12 07:59:09;;;;;;;5.50;3.47;;;;;;;21.93;61.79;99048.30;1652989;86;25495;-58
2022/08/12 08:01:37;;;;;;;5.08;3.75;;;;;;;21.96;61.69;99058.70;1652774;86;27590;-59
2022/08/12 08:06:50;;;;;;;5.37;3.45;;;;;;;22.21;61.61;99056.77;1652697;86;25696;-58
2022/08/12 08:09:20;;;;;;;5.60;3.72;;;;;;;22.49;60.75;99054.05;1652907;86;26544;-59
2022/08/12 08:14:32;;;;;;;3.58;3.17;;;;;;;22.87;59.79;99065.73;1657459;86;25673;-59
2022/08/12 08:17:05;;;;;;;4.35;3.25;;;;;;;23.41;59.85;99068.92;1657757;86;25681;-58
2022/08/12 08:19:32;;;;;;;4.65;3.10;;;;;;;23.87;58.37;99069.52;1657562;86;25688;-59
2022/08/12 08:21:59;;;;;;;5.75;3.35;;;;;;;23.55;56.40;99075.78;1657404;86;25794;-59
2022/08/12 08:24:27;;;;;;;4.42;3.52;;;;;;;23.37;57.43;99075.08;1657638;86;25467;-60
2022/08/12 08:26:58;;;;;;;5.40;3.20;;;;;;;23.55;56.45;99080.75;1657827;86;27266;-61
2022/08/12 08:29:26;;;;;;;3.45;3.15;;;;;;;23.68;56.72;99069.22;1657528;86;25860;-63
2022/08/12 08:31:54;;;;;;;4.50;3.30;;;;;;;23.89;55.53;99068.50;1629291;86;25538;-60
2022/08/12 08:34:25;;;;;;;9.88;4.00;;;;;;;23.97;55.56;99070.73;1657475;86;26747;-59
2022/08/12 08:36:50;;;;;;;3.60;3.25;;;;;;;23.96;56.01;99070.53;1657398;86;25664;-59
2022/08/12 08:39:19;;;;;;;3.62;2.90;;;;;;;23.87;55.47;99065.91;1657552;86;27422;-59
2022/08/12 08:44:31;;;;;;;8.20;3.10;;;;;;;23.98;55.27;99074.34;1656789;86;25766;-59
2022/08/12 08:47:00;;;;;;;4.83;2.92;;;;;;;23.67;54.70;99081.63;1657704;86;26707;-61
2022/08/12 08:49:26;;;;;;;3.60;3.30;;;;;;;23.58;55.17;99079.77;1657263;86;25691;-59
2022/08/12 08:51:53;;;;;;;3.60;3.10;;;;;;;23.85;55.69;99075.28;1657579;86;27349;-59
2022/08/12 08:54:19;;;;;;;4.08;2.50;;;;;;;24.05;55.78;99077.96;1657513;86;25489;-59
2022/08/12 08:56:48;;;;;;;4.25;3.40;;;;;;;24.22;53.73;99077.61;1657519;86;25619;-58
2022/08/12 08:59:18;;;;;;;3.50;3.02;;;;;;;24.04;53.60;99070.73;1657248;86;25500;-59
2022/08/12 09:01:46;;;;;;;3.27;3.05;;;;;;;24.00;53.67;99067.13;1657703;86;25628;-59
2022/08/12 09:04:13;;;;;;;4.42;2.90;;;;;;;23.79;54.31;99066.47;1657591;86;28373;-60
2022/08/12 09:06:41;;;;;;;5.25;2.83;;;;;;;23.50;55.04;99070.55;1657534;86;25423;-60
2022/08/12 09:09:10;;;;;;;4.78;3.20;;;;;;;23.46;54.92;99073.34;1656971;86;25771;-59
2022/08/12 09:14:22;;;;;;;7.60;3.10;;;;;;;24.27;54.45;99058.41;1662658;86;25673;-59
2022/08/12 09:16:49;;;;;;;2.60;2.40;;;;;;;24.48;51.67;99058.84;1663056;86;26891;-59
2022/08/12 09:19:17;;;;;;;8.93;3.47;;;;;;;24.39;51.53;99066.24;1662606;86;25485;-59
2022/08/12 09:21:47;;;;;;;4.90;3.08;;;;;;;24.36;52.72;99068.44;1662971;85;25648;-59
2022/08/12 09:24:18;;;;;;;2.83;2.62;;;;;;;24.65;52.58;99061.45;1662849;86;25745;-58
2022/08/12 09:26:46;;;;;;;2.90;2.60;;;;;;;25.02;52.43;99065.06;1662819;85;25648;-60
2022/08/12 09:29:14;;;;;;;5.67;2.92;;;;;;;25.14;49.82;99056.83;1662789;86;27389;-60
2022/08/12 09:31:41;;;;;;;3.17;2.60;;;;;;;25.23;50.00;99060.60;1677298;84;25806;-60
2022/08/12 09:34:09;;;;;;;3.05;2.70;;;;;;;25.65;49.80;99064.50;1682984;84;25734;-59
2022/08/12 09:36:37;;;;;;;3.58;2.70;;;;;;;25.43;48.72;99063.77;1677915;84;25825;-58
2022/08/12 09:39:08;;;;;;;4.92;2.80;;;;;;;24.95;49.42;99061.66;1682611;84;25945;-61
2022/08/12 09:41:44;;;;;;;2.80;2.60;;;;;;;24.98;49.35;99059.45;1685240;85;27292;-59
2022/08/12 09:46:57;;;;;;;4.55;2.47;;;;;;;25.06;49.60;99063.05;1684932;85;25687;-59
2022/08/12 09:49:23;;;;;;;2.40;2.20;;;;;;;25.56;48.73;99057.90;1685195;85;25846;-60
2022/08/12 09:51:50;;;;;;;2.33;2.12;;;;;;;25.87;48.08;99057.39;1684860;85;25695;-59
2022/08/12 09:54:26;;;;;;;2.90;2.20;;;;;;;25.94;46.94;99052.35;1685075;85;27584;-60
2022/08/12 09:56:53;;;;;;;4.30;2.30;;;;;;;26.22;46.15;99052.59;1685151;85;25684;-59
2022/08/12 09:59:20;;;;;;;2.40;2.10;;;;;;;26.42;45.99;99052.26;1685071;85;25932;-59
2022/08/12 10:01:47;;;;;;;3.72;2.02;;;;;;;26.83;44.81;99043.50;1685172;84;25862;-59
2022/08/12 10:04:14;;;;;;;2.27;2.17;;;;;;;26.97;43.73;99044.75;1684953;85;25638;-59
2022/08/12 10:06:43;;;;;;;2.72;2.33;;;;;;;27.11;44.62;99045.88;1685173;85;27262;-58
2022/08/12 10:09:12;;;;;;;2.45;2.25;;;;;;;27.47;42.83;99040.44;1684540;85;25731;-60
2022/08/12 10:14:23;;;;;;;2.08;1.92;;;;;;;28.05;41.22;99034.06;1679326;85;25600;-60
2022/08/12 10:16:49;;;;;;;3.65;2.00;;;;;;;27.91;41.49;99033.05;1679499;84;25624;-58
2022/08/12 10:19:18;;;;;;;2.40;2.20;;;;;;;27.91;41.97;99027.42;1679887;84;27394;-58
2022/08/12 10:21:44;;;;;;;2.37;2.00;;;;;;;27.99;41.53;99025.91;1679394;84;25671;-58
2022/08/12 10:24:15;;;;;;;2.75;2.42;;;;;;;27.29;41.65;99030.20;1679663;84;25709;-58
2022/08/12 10:29:38;;;;;;;2.30;2.10;;;;;;;26.49;42.89;99033.75;1679372;85;25695;-59
2022/08/12 10:32:18;;;;;;;3.55;2.30;;;;;;;26.61;43.37;99024.01;1679380;84;27528;-58
2022/08/12 10:34:43;;;;;;;7.17;2.30;;;;;;;26.68;44.11;99018.31;1679174;85;25742;-59
2022/08/12 10:37:10;;;;;;;2.30;1.87;;;;;;;26.96;42.30;99017.86;1679851;84;25739;-58
2022/08/12 10:39:39;;;;;;;2.02;1.90;;;;;;;27.29;41.97;99018.32;1679501;85;25818;-58
2022/08/12 10:45:06;;;;;;;3.42;1.82;;;;;;;27.76;41.47;99018.37;1679339;85;25664;-59
2022/08/12 10:47:35;;;;;;;2.42;2.08;;;;;;;27.56;40.47;99015.39;1679429;84;25507;-59
2022/08/12 10:50:06;;;;;;;2.50;2.10;;;;;;;27.60;40.42;99010.51;1679844;84;25648;-59
2022/08/12 10:52:38;;;;;;;5.28;2.33;;;;;;;27.71;40.59;99009.63;1679655;84;25628;-59
2022/08/12 10:55:01;;;;;;;2.87;2.10;;;;;;;27.77;40.29;99005.08;1678830;85;25659;-59
2022/08/12 10:57:27;;;;;;;2.47;2.17;;;;;;;28.13;40.07;98998.14;1679316;84;27388;-59
2022/08/12 10:59:56;;;;;;;3.52;2.35;;;;;;;28.17;40.64;98993.23;1679352;84;25707;-59
2022/08/12 11:02:27;;;;;;;2.30;2.10;;;;;;;28.02;40.88;98999.70;1679711;84;25601;-59
2022/08/12 11:04:57;;;;;;;2.37;2.17;;;;;;;28.29;40.07;98984.19;1679360;84;25724;-61
2022/08/12 11:07:25;;;;;;;3.92;2.10;;;;;;;28.15;39.70;98985.20;1679521;85;25656;-61
2022/08/12 11:09:52;;;;;;;2.67;2.45;;;;;;;27.74;40.57;98989.84;1679578;84;27638;-60
2022/08/12 11:12:19;;;;;;;2.37;2.15;;;;;;;28.20;41.16;98987.37;1679140;84;27129;-60
2022/08/12 11:14:45;;;;;;;3.10;2.02;;;;;;;27.99;40.17;98974.61;1679794;85;25523;-60
2022/08/12 11:17:13;;;;;;;3.95;2.20;;;;;;;27.75;40.48;98987.84;1679267;84;25777;-60
2022/08/12 11:19:42;;;;;;;2.20;2.10;;;;;;;27.97;41.05;98977.04;1679577;84;25731;-60
2022/08/12 11:22:10;;;;;;;2.17;1.90;;;;;;;28.25;39.93;98979.23;1679872;84;27388;-61
2022/08/12 11:24:38;;;;;;;2.87;2.02;;;;;;;28.78;38.82;98977.96;1679460;85;25715;-60
2022/08/12 11:27:07;;;;;;;2.27;2.08;;;;;;;29.16;38.52;98981.09;1679622;84;25670;-60
2022/08/12 11:29:40;;;;;;;2.05;1.92;;;;;;;29.17;37.73;98981.26;1679667;85;32824;-61
2022/08/12 11:32:18;;;;;;;3.10;2.33;;;;;;;29.12;38.04;98978.94;1679737;84;25502;-60
2022/08/12 11:34:45;;;;;;;2.02;1.92;;;;;;;29.42;38.09;98977.91;1679527;84;28369;-61
2022/08/12 11:37:12;;;;;;;3.10;1.98;;;;;;;29.55;36.36;98978.05;1679435;84;25662;-60
2022/08/12 11:39:38;;;;;;;3.87;1.80;;;;;;;29.57;37.08;98968.36;1679494;84;25506;-60
2022/08/12 11:42:05;;;;;;;2.70;1.60;;;;;;;29.63;35.31;98976.50;1679474;84;25947;-61
2022/08/12 11:44:32;;;;;;;1.37;1.30;;;;;;;29.77;35.31;98982.45;1679422;85;25624;-62
2022/08/12 11:46:58;;;;;;;2.20;1.77;;;;;;;29.79;34.46;98969.47;1679154;85;27590;-61
2022/08/12 11:49:27;;;;;;;2.40;2.00;;;;;;;29.58;36.16;98967.93;1678613;84;27447;-60
2022/08/12 11:51:53;;;;;;;2.12;2.02;;;;;;;30.23;35.18;98967.07;1668316;85;25495;-60
2022/08/12 11:54:21;;;;;;;3.62;2.00;;;;;;;30.13;34.91;98968.88;1655554;85;26329;-60
2022/08/12 11:56:48;;;;;;;2.27;2.02;;;;;;;29.87;34.49;98967.88;1651862;86;25637;-60
2022/08/12 11:59:14;;;;;;;2.75;1.60;;;;;;;29.72;35.14;98969.64;1654681;85;27486;-61
2022/08/12 12:01:41;;;;;;;2.80;1.80;;;;;;;30.06;33.68;98970.48;1644675;85;25481;-60
2022/08/12 12:04:08;;;;;;;2.00;1.90;;;;;;;29.88;34.48;98963.84;1641041;85;25521;-60
2022/08/12 12:06:34;;;;;;;1.60;1.50;;;;;;;30.27;34.84;98968.38;1641060;87;25934;-60
2022/08/12 12:09:01;;;;;;;2.33;1.50;;;;;;;30.74;32.71;98967.80;1641279;87;25423;-60
2022/08/12 12:11:28;;;;;;;1.95;1.75;;;;;;;30.88;32.87;98970.89;1653612;85;27471;-60
2022/08/12 12:13:55;;;;;;;2.08;1.87;;;;;;;30.92;33.07;98964.50;1686505;84;25734;-58
2022/08/12 12:16:21;;;;;;;2.65;1.70;;;;;;;30.88;33.19;98966.01;1686932;85;25692;-58
2022/08/12 12:18:48;;;;;;;1.90;1.75;;;;;;;31.37;32.52;98964.25;1686838;84;26118;-59
2022/08/12 12:21:16;;;;;;;3.10;1.98;;;;;;;31.01;32.07;98956.16;1686794;85;25628;-59
2022/08/12 12:23:42;;;;;;;3.27;1.90;;;;;;;31.08;32.99;98962.87;1686656;84;27486;-59
2022/08/12 12:26:09;;;;;;;2.27;1.77;;;;;;;31.22;32.82;98958.19;1686893;84;25620;-60
2022/08/12 12:28:37;;;;;;;2.37;2.10;;;;;;;31.04;32.25;98959.52;1686834;84;25466;-61
2022/08/12 12:31:05;;;;;;;2.10;1.90;;;;;;;31.22;33.03;98946.87;1686913;84;26078;-58
2022/08/12 12:33:33;;;;;;;2.37;1.67;;;;;;;31.32;32.17;98948.42;1686676;85;25715;-61
2022/08/12 12:36:00;;;;;;;3.75;2.08;;;;;;;31.84;33.60;98954.15;1686636;85;27625;-58
2022/08/12 12:38:26;;;;;;;2.30;1.90;;;;;;;32.07;31.89;98945.95;1686554;85;25682;-58
2022/08/12 12:40:53;;;;;;;1.90;1.80;;;;;;;31.68;32.17;98945.93;1686881;85;25708;-58
2022/08/12 12:43:20;;;;;;;2.00;1.90;;;;;;;31.27;32.75;98946.33;1686685;84;25915;-58
2022/08/12 12:45:49;;;;;;;2.40;2.20;;;;;;;30.79;33.73;98948.27;1686853;84;25475;-59
2022/08/12 12:48:18;;;;;;;2.90;1.95;;;;;;;30.06;35.18;98947.88;1683988;85;26744;-58
2022/08/12 12:51:14;;;;;;;2.15;2.05;;;;;;;29.68;35.13;98944.94;1686156;85;26108;-58
2022/08/12 12:53:22;;;;;;;3.15;1.92;;;;;;;29.62;34.15;98946.69;1682937;85;25486;-58
2022/08/12 12:55:49;;;;;;;2.30;2.10;;;;;;;29.40;34.26;98949.34;1686717;85;25848;-59
2022/08/12 12:58:16;;;;;;;2.10;2.00;;;;;;;29.40;34.59;98940.06;1686878;85;25735;-59
2022/08/12 13:00:44;;;;;;;2.10;1.90;;;;;;;29.60;34.53;98940.06;1686603;85;27527;-59
2022/08/12 13:03:12;;;;;;;2.37;2.10;;;;;;;29.51;34.32;98932.77;1686802;85;25723;-59
2022/08/12 13:05:44;;;;;;;2.00;1.90;;;;;;;29.86;33.92;98926.15;1686989;85;25689;-58
2022/08/12 13:08:25;;;;;;;;;;;;;;;30.22;33.78;98925.13;1688342;85;25588;-60
2022/08/12 13:10:54;;;;;;;3.25;2.10;;;;;;;30.07;33.77;98919.78;1686949;85;25652;-59
2022/08/12 13:13:23;;;;;;;1.90;1.80;;;;;;;29.73;35.17;98918.20;1686873;84;27382;-60
2022/08/12 13:15:50;;;;;;;2.40;2.17;;;;;;;29.55;34.68;98930.05;1687219;84;25685;-60
2022/08/12 13:18:17;;;;;;;2.25;2.05;;;;;;;29.35;35.16;98923.03;1686662;84;25467;-59
2022/08/12 13:20:46;;;;;;;2.80;2.20;;;;;;;29.01;34.73;98914.30;1686823;84;25736;-62
2022/08/12 13:23:18;;;;;;;2.47;2.27;;;;;;;28.27;35.99;98920.41;1686893;84;25631;-61
2022/08/12 13:25:44;;;;;;;2.37;2.10;;;;;;;27.96;36.82;98919.13;1686500;85;25625;-60
2022/08/12 13:28:23;;;;;;;2.87;2.40;;;;;;;27.51;36.65;98918.76;1686710;85;25430;-60
2022/08/12 13:30:56;;;;;;;4.17;2.08;;;;;;;27.77;37.17;98914.39;1686983;84;25691;-59
2022/08/12 13:33:25;;;;;;;2.12;2.02;;;;;;;27.92;36.03;98914.95;1686538;85;25715;-60
2022/08/12 13:36:03;;;;;;;2.37;2.10;;;;;;;28.13;35.90;98902.36;1686908;85;25463;-60
2022/08/12 13:38:42;;;;;;;2.50;2.30;;;;;;;28.46;35.49;98913.88;1685751;85;26036;-59
2022/08/12 13:43:59;;;;;;;3.45;2.00;;;;;;;28.80;34.42;98904.38;1686780;85;25699;-59